Airfield :
LOGIN :

Register | Disclaimer

   EN    FR    IT 

 










Legend :    VFR   Marginal VFR   IFR   Intensive IFR   Very Intensive IFR
Visi :
Ceiling :
>= 8 km
>= 3000ft
5 to 8 km
1000 to 3000 ft
1500m to 5 km
500 to 1000 ft
800 to 1500m
200 to 500 ft
< 800m
< 200 ft
Symbols :   Thunderstorms  Fog  Heavy snow  Heavy precipitations  Wind > 20 kt
SIGMETs :     Misc.  Thunderstorms  Icing  Turbulence  Mountain Waves  Volcanic Ashes






- Airport Elevation : 74 ft
- IATA code : EIN


EHEH - Eindhoven

CURRENT METAR :
  • 052330Z AUTO 01004KT 7000 BR NCD 02/01 Q1043 WHT

EXPIRED METARs :
  • 052310Z AUTO 36004KT 320V030 8000 BR NCD 02/01 Q1043 BLU
  • 052255Z AUTO 01005KT 320V050 8000 BR NCD 02/01 Q1042 BLU
  • 052225Z AUTO 35006KT 320V030 9000 BR NCD 03/02 Q1042 BLU NOSIG
  • 052125Z AUTO 35006KT 320V020 9999 NCD 04/02 Q1042 BLU NOSIG
  • 052114Z AUTO 35005KT 300V030 9999 FEW017 BKN220 04/02 Q1042 BLU NOSIG
  • 052100Z AUTO 34005KT 290V030 9999 SCT018 OVC220 04/02 Q1042 WHT NOSIG
  • 052056Z AUTO 34006KT 290V020 9999 FEW018 OVC220 04/02 Q1042 BLU NOSIG

TAF TAF EHEH
Valid from the 06 at 00:00 until the 07 at 06:00 UTC


052307Z 0600/0706 36010KT 9999 SCT022
BECMG 0600/0603 4000 BR MIFG
PROB40
TEMPO 0603/0610 VRB02KT 0400 FG OVC001
BECMG 0609/0611 8000 NSW BKN005
BECMG 0612/0614 SCT015 BKN020



MET'MAP, your aeronautical weather chart ! - Copyright ORBIFLY December 2007 - Disclaimer

ORBIFLY MET'MAP TEAM :

Programming & Development : Alexandra Zaïnal
Original concept : Baudouin d'Aumeries
Technical & hardware support : Manuel Goepfert
Assistance : Marc-Olivier Méhu




SOURCES & CREDITS :

   NOAA